createdAt,value
2023-01-09T00:00:21.590Z,99423.69
2023-01-09T00:02:27.625Z,99413.77
2023-01-09T00:04:32.923Z,99407.04
2023-01-09T00:06:37.841Z,99405.35
2023-01-09T00:08:43.152Z,99408.02
2023-01-09T00:10:48.451Z,99409.06
2023-01-09T00:12:53.835Z,99407.17
2023-01-09T00:14:59.170Z,99399.98
2023-01-09T00:17:04.832Z,99395.16
2023-01-09T00:19:10.156Z,99394.45
2023-01-09T00:21:15.391Z,99391.63
2023-01-09T00:23:20.741Z,99403.55
2023-01-09T00:25:26.047Z,99402.13
2023-01-09T00:27:31.190Z,99406.44
2023-01-09T00:29:36.619Z,99404.86
2023-01-09T00:31:42.183Z,99407.02
2023-01-09T00:33:47.357Z,99396.88
2023-01-09T00:35:52.862Z,99396.27
2023-01-09T00:37:58.227Z,99395.2
2023-01-09T00:40:03.594Z,99401.59
2023-01-09T00:42:08.809Z,99397.33
2023-01-09T00:44:14.058Z,99388.16
2023-01-09T00:46:19.837Z,99396
2023-01-09T00:48:25.527Z,99399.7
2023-01-09T00:50:30.710Z,99402.75
2023-01-09T00:52:36.029Z,99393.3
2023-01-09T00:54:41.195Z,99389.54
2023-01-09T00:56:46.539Z,99383.11
2023-01-09T00:58:51.526Z,99382.8
2023-01-09T01:00:56.983Z,99383.87
2023-01-09T01:03:02.745Z,99390.49
2023-01-09T01:05:08.078Z,99386.23
2023-01-09T01:07:13.307Z,99374.3
2023-01-09T01:09:18.511Z,99372.51
2023-01-09T01:11:23.854Z,99367.57
2023-01-09T01:13:29.039Z,99366.76
2023-01-09T01:15:34.412Z,99349.4
2023-01-09T01:17:39.742Z,99346.38
2023-01-09T01:19:45.119Z,99341.38
2023-01-09T01:21:50.169Z,99335.48
2023-01-09T01:23:55.082Z,99335.75
2023-01-09T01:26:00.170Z,99339.69
2023-01-09T01:28:05.548Z,99339.34
2023-01-09T01:30:10.507Z,99327.72
2023-01-09T01:32:15.790Z,99323.06
2023-01-09T01:34:21.182Z,99327.19
2023-01-09T01:36:26.445Z,99330.38
2023-01-09T01:38:31.402Z,99330.62
2023-01-09T01:40:36.875Z,99325.92
2023-01-09T01:42:43.610Z,99321.27
2023-01-09T01:44:48.851Z,99327.29
2023-01-09T01:46:54.365Z,99331.53
2023-01-09T01:49:00.921Z,99334.45
2023-01-09T01:51:06.244Z,99338.21
2023-01-09T01:53:11.457Z,99339.03
2023-01-09T01:55:16.736Z,99340.94
2023-01-09T01:57:21.843Z,99336.66
2023-01-09T01:59:27.063Z,99325.53
2023-01-09T02:01:32.399Z,99329.68
2023-01-09T02:03:37.874Z,99334.25
2023-01-09T02:05:43.434Z,99326.68
2023-01-09T02:07:48.631Z,99318.48
2023-01-09T02:09:53.680Z,99315.05
2023-01-09T02:11:59.074Z,99317.77
2023-01-09T02:14:04.565Z,99311.88
2023-01-09T02:16:10.006Z,99308.6
2023-01-09T02:18:15.339Z,99304.3
2023-01-09T02:20:20.532Z,99300.22
2023-01-09T02:22:25.817Z,99301.39
2023-01-09T02:24:31.089Z,99305.42
2023-01-09T02:26:36.317Z,99309.54
2023-01-09T02:28:41.409Z,99311.28
2023-01-09T02:30:46.721Z,99301.61
2023-01-09T02:32:51.742Z,99292.77
2023-01-09T02:34:57.115Z,99294.45
2023-01-09T02:37:02.329Z,99299.12
2023-01-09T02:39:07.560Z,99293.98
2023-01-09T02:41:12.804Z,99294.64
2023-01-09T02:43:18.189Z,99291.59
2023-01-09T02:45:26.874Z,99284.63
2023-01-09T02:47:32.380Z,99286.06
2023-01-09T02:49:37.526Z,99286.6
2023-01-09T02:51:44.034Z,99288.56
2023-01-09T02:53:51.151Z,99291.2
2023-01-09T02:55:56.304Z,99294.48
2023-01-09T02:58:01.475Z,99291.19
2023-01-09T03:00:07.050Z,99293.19
2023-01-09T03:02:12.589Z,99285.92
2023-01-09T03:04:18.255Z,99278.5
2023-01-09T03:06:23.322Z,99279.41
2023-01-09T03:08:30.641Z,99278.13
2023-01-09T03:10:36.168Z,99270.84
2023-01-09T03:12:41.513Z,99266.71
2023-01-09T03:14:46.615Z,99267.37
2023-01-09T03:16:52.008Z,99266.28
2023-01-09T03:18:57.007Z,99261.87
2023-01-09T03:21:02.495Z,99261.14
2023-01-09T03:23:07.552Z,99255.33
2023-01-09T03:25:12.679Z,99254.19
2023-01-09T03:27:17.853Z,99250.94
2023-01-09T03:29:23.046Z,99250.72
2023-01-09T03:31:28.241Z,99244.45
2023-01-09T03:33:33.537Z,99240.25
2023-01-09T03:35:38.713Z,99235.86
2023-01-09T03:37:43.919Z,99234.64
2023-01-09T03:39:48.968Z,99231.66
2023-01-09T03:41:54.532Z,99234.66
2023-01-09T03:43:59.688Z,99226.95
2023-01-09T03:46:05.171Z,99223.93
2023-01-09T03:48:10.762Z,99227.94
2023-01-09T03:50:15.817Z,99221.59
2023-01-09T03:52:24.128Z,99230.86
2023-01-09T03:54:29.449Z,99227.29
2023-01-09T03:56:34.583Z,99226.06
2023-01-09T03:58:42.800Z,99233.77
2023-01-09T04:00:47.751Z,99229.98
2023-01-09T04:02:53.226Z,99226.47
2023-01-09T04:05:01.582Z,99227.69
2023-01-09T04:07:06.595Z,99220.05
2023-01-09T04:09:11.992Z,99218.27
2023-01-09T04:11:17.619Z,99224.67
2023-01-09T04:13:22.899Z,99218.34
2023-01-09T04:15:28.426Z,99221.63
2023-01-09T04:17:33.894Z,99223.11
2023-01-09T04:19:39.327Z,99223.25
2023-01-09T04:21:44.319Z,99223.63
2023-01-09T04:23:49.524Z,99222.88
2023-01-09T04:25:54.631Z,99223.81
2023-01-09T04:27:59.731Z,99221.64
2023-01-09T04:30:04.808Z,99220.08
2023-01-09T04:32:10.066Z,99217.23
2023-01-09T04:34:15.318Z,99220.17
2023-01-09T04:36:20.678Z,99216.73
2023-01-09T04:38:25.990Z,99210.69
2023-01-09T04:40:31.707Z,99209.97
2023-01-09T04:42:36.964Z,99209.27
2023-01-09T04:44:42.012Z,99206.77
2023-01-09T04:46:47.196Z,99212.17
2023-01-09T04:48:52.553Z,99211.5
2023-01-09T04:50:57.851Z,99204.88
2023-01-09T04:53:02.792Z,99201.88
2023-01-09T04:55:07.959Z,99203.38
2023-01-09T04:57:13.165Z,99197.77
2023-01-09T04:59:18.347Z,99191.42
2023-01-09T05:01:23.784Z,99189.74
2023-01-09T05:03:29.468Z,99191.2
2023-01-09T05:05:34.899Z,99188.33
2023-01-09T05:07:40.213Z,99184
2023-01-09T05:09:45.671Z,99180.98
2023-01-09T05:11:50.813Z,99184.97
2023-01-09T05:13:56.359Z,99178.75
2023-01-09T05:16:01.444Z,99176.38
2023-01-09T05:18:06.632Z,99173.97
2023-01-09T05:20:11.915Z,99173.56
2023-01-09T05:22:17.192Z,99163.98
2023-01-09T05:24:22.458Z,99170.84
2023-01-09T05:26:27.752Z,99164.96
2023-01-09T05:28:33.433Z,99160.36
2023-01-09T05:30:38.996Z,99159.42
2023-01-09T05:32:44.433Z,99157.59
2023-01-09T05:34:49.817Z,99154.38
2023-01-09T05:36:55.250Z,99158
2023-01-09T05:39:00.311Z,99158.98
2023-01-09T05:41:05.910Z,99163.38
2023-01-09T05:43:11.187Z,99165.02
2023-01-09T05:45:16.503Z,99161.58
2023-01-09T05:47:21.718Z,99154.3
2023-01-09T05:49:26.940Z,99151.04
2023-01-09T05:51:32.134Z,99159.98
2023-01-09T05:53:37.654Z,99159.3
2023-01-09T05:55:42.917Z,99158.38
2023-01-09T05:57:48.049Z,99153.03
2023-01-09T05:59:53.296Z,99150.06
2023-01-09T06:01:58.878Z,99149.45
2023-01-09T06:04:04.170Z,99151.45
2023-01-09T06:06:09.419Z,99148.55
2023-01-09T06:08:14.755Z,99151.63
2023-01-09T06:10:20.406Z,99154.09
2023-01-09T06:12:26.025Z,99156.11
2023-01-09T06:14:31.304Z,99161.06
2023-01-09T06:16:36.920Z,99162.66
2023-01-09T06:18:41.978Z,99161.98
2023-01-09T06:20:47.266Z,99160.19
2023-01-09T06:22:52.723Z,99161.03
2023-01-09T06:24:58.066Z,99165.06
2023-01-09T06:27:03.446Z,99165.59
2023-01-09T06:29:08.749Z,99161.03
2023-01-09T06:31:14.222Z,99163.52
2023-01-09T06:33:19.566Z,99160.19
2023-01-09T06:35:24.756Z,99157.09
2023-01-09T06:37:30.385Z,99154.78
2023-01-09T06:39:36.234Z,99147.26
2023-01-09T06:41:41.150Z,99138.67
2023-01-09T06:43:46.242Z,99135.44
2023-01-09T06:45:51.834Z,99140.44
2023-01-09T06:47:57.531Z,99134.61
2023-01-09T06:50:03.114Z,99136.47
2023-01-09T06:52:08.638Z,99135.69
2023-01-09T06:54:13.782Z,99141.53
2023-01-09T06:56:19.187Z,99149.77
2023-01-09T06:58:24.597Z,99146
2023-01-09T07:00:30.063Z,99143.3
2023-01-09T07:02:35.709Z,99144.91
2023-01-09T07:04:41.101Z,99140.38
2023-01-09T07:06:46.555Z,99139.02
2023-01-09T07:08:51.859Z,99135.55
2023-01-09T07:10:56.991Z,99131.77
2023-01-09T07:13:02.319Z,99133.87
2023-01-09T07:15:07.592Z,99136.31
2023-01-09T07:17:13.007Z,99126.5
2023-01-09T07:19:20.919Z,99136.09
2023-01-09T07:21:26.549Z,99132.38
2023-01-09T07:23:33.437Z,99132.33
2023-01-09T07:25:39.207Z,99125.63
2023-01-09T07:27:44.423Z,99120.88
2023-01-09T07:29:49.513Z,99122.41
2023-01-09T07:31:54.755Z,99111.88
2023-01-09T07:34:00.044Z,99115.63
2023-01-09T07:36:05.455Z,99116.37
2023-01-09T07:38:32.392Z,99117.48
2023-01-09T07:40:40.976Z,99114.6
2023-01-09T07:42:47.001Z,99117.32
2023-01-09T07:44:52.579Z,99116.11
2023-01-09T07:46:57.964Z,99118
2023-01-09T07:49:03.794Z,99107.39
2023-01-09T07:51:09.016Z,99111.56
2023-01-09T07:53:14.150Z,99107.65
2023-01-09T07:55:19.347Z,99104.23
2023-01-09T07:57:25.206Z,99104.4
2023-01-09T07:59:30.408Z,99104.52
2023-01-09T08:01:35.981Z,99097.98
2023-01-09T08:03:42.475Z,99096.58
2023-01-09T08:05:50.492Z,99097.11
2023-01-09T08:07:57.152Z,99097.5
2023-01-09T08:10:03.059Z,99095.56
2023-01-09T08:12:08.503Z,99087.48
2023-01-09T08:14:17.359Z,99088.75
2023-01-09T08:16:30.011Z,99086.98
2023-01-09T08:18:35.263Z,99082.94
2023-01-09T08:20:40.356Z,99084.34
2023-01-09T08:22:45.520Z,99078.61
2023-01-09T08:24:51.603Z,99075.86
2023-01-09T08:26:57.475Z,99074
2023-01-09T08:29:03.601Z,99085.52
2023-01-09T08:31:12.413Z,99081.61
2023-01-09T08:33:18.042Z,99080.12
2023-01-09T08:35:23.601Z,99087.75
2023-01-09T08:37:28.909Z,99091.77
2023-01-09T08:39:34.112Z,99087.18
2023-01-09T08:41:39.430Z,99090.61
2023-01-09T08:43:44.584Z,99082.86
2023-01-09T08:45:49.733Z,99077.84
2023-01-09T08:47:54.946Z,99080.23
2023-01-09T08:50:00.666Z,99083.64
2023-01-09T08:52:05.906Z,99078.47
2023-01-09T08:54:11.530Z,99078.82
2023-01-09T08:56:17.184Z,99067.36
2023-01-09T08:58:22.616Z,99066.45
2023-01-09T09:00:27.726Z,99063.37
2023-01-09T09:02:33.005Z,99065.05
2023-01-09T09:04:38.602Z,99084.11
2023-01-09T09:06:44.220Z,99089.55
2023-01-09T09:08:53.031Z,99082.94
2023-01-09T09:10:58.311Z,99090.06
2023-01-09T09:13:03.750Z,99078.25
2023-01-09T09:15:08.983Z,99078.98
2023-01-09T09:17:14.777Z,99074.52
2023-01-09T09:19:24.150Z,99064.34
2023-01-09T09:21:30.078Z,99065.95
2023-01-09T09:23:35.339Z,99066.3
2023-01-09T09:25:43.179Z,99067.78
2023-01-09T09:27:51.948Z,99063.68
2023-01-09T09:30:00.559Z,99060.13
2023-01-09T09:32:05.711Z,99056.76
2023-01-09T09:34:10.869Z,99052.67
2023-01-09T09:36:16.357Z,99049.64
2023-01-09T09:38:24.462Z,99050.81
2023-01-09T09:40:30.805Z,99048.26
2023-01-09T09:42:36.455Z,99049.11
2023-01-09T09:44:53.211Z,99046.16
2023-01-09T09:46:59.367Z,99048.13
2023-01-09T09:49:07.166Z,99047.81
2023-01-09T09:51:12.700Z,99051
2023-01-09T09:53:18.010Z,99049.69
2023-01-09T09:55:23.157Z,99048.78
2023-01-09T09:57:29.010Z,99048.14
2023-01-09T09:59:34.891Z,99047.81
2023-01-09T10:01:40.140Z,99047.31
2023-01-09T10:03:45.810Z,99048.63
2023-01-09T10:05:51.361Z,99046.91
2023-01-09T10:07:59.528Z,99038.06
2023-01-09T10:10:19.621Z,99038.88
2023-01-09T10:12:25.080Z,99034.43
2023-01-09T10:14:33.960Z,99033.95
2023-01-09T10:16:39.995Z,99031.91
2023-01-09T10:18:45.788Z,99027.17
2023-01-09T10:20:51.479Z,99023.13
2023-01-09T10:22:58.929Z,99022.25
2023-01-09T10:25:05.251Z,99025.11
2023-01-09T10:27:11.419Z,99025.02
2023-01-09T10:29:16.734Z,99021.67
2023-01-09T10:31:22.327Z,99022.25
2023-01-09T10:33:28.131Z,99020.69
2023-01-09T10:35:48.466Z,99018.22
2023-01-09T10:37:54.578Z,99021.92
2023-01-09T10:40:00.335Z,99014.88
2023-01-09T10:42:07.407Z,99008.3
2023-01-09T10:44:13.327Z,99001.02
2023-01-09T10:46:19.626Z,98998.08
2023-01-09T10:48:26.274Z,98992.18
2023-01-09T10:50:32.417Z,98988.3
2023-01-09T10:52:38.393Z,98984.72
2023-01-09T10:54:44.016Z,98983.97
2023-01-09T10:56:49.867Z,98975.28
2023-01-09T10:58:55.769Z,98981.56
2023-01-09T11:01:02.174Z,98981.08
2023-01-09T11:03:08.656Z,98980.41
2023-01-09T11:05:14.860Z,98973.34
2023-01-09T11:07:20.783Z,98973.27
2023-01-09T11:09:26.999Z,98969
2023-01-09T11:11:34.098Z,98969.97
2023-01-09T11:13:40.515Z,98965.14
2023-01-09T11:15:46.625Z,98967.77
2023-01-09T11:17:52.922Z,98962.69
2023-01-09T11:19:58.788Z,98962.92
2023-01-09T11:22:04.607Z,98953.58
2023-01-09T11:24:13.672Z,98961.13
2023-01-09T11:26:20.073Z,98951.22
2023-01-09T11:28:26.150Z,98949.16
2023-01-09T11:30:32.692Z,98949.46
2023-01-09T11:32:38.905Z,98941.84
2023-01-09T11:34:46.546Z,98939.2
2023-01-09T11:36:52.986Z,98929.92
2023-01-09T11:38:59.270Z,98933.84
2023-01-09T11:41:05.542Z,98927.29
2023-01-09T11:43:14.560Z,98925.67
2023-01-09T11:45:21.312Z,98927.41
2023-01-09T11:47:27.332Z,98924.66
2023-01-09T11:49:33.501Z,98926.47
2023-01-09T11:51:39.334Z,98927.34
2023-01-09T11:53:45.068Z,98923.59
2023-01-09T11:55:50.597Z,98919.79
2023-01-09T11:57:56.324Z,98924.34
2023-01-09T12:00:02.093Z,98911.91
2023-01-09T12:02:07.799Z,98907.86
2023-01-09T12:04:14.710Z,98905.3
2023-01-09T12:06:21.234Z,98910.3
2023-01-09T12:08:27.028Z,98915.36
2023-01-09T12:10:32.846Z,98915.36
2023-01-09T12:12:39.016Z,98909.58
2023-01-09T12:14:45.816Z,98902.79
2023-01-09T12:16:51.311Z,98904.97
2023-01-09T12:18:56.581Z,98910.14
2023-01-09T12:21:01.917Z,98909.55
2023-01-09T12:23:07.264Z,98919.07
2023-01-09T12:25:12.517Z,98922.25
2023-01-09T12:27:20.611Z,98922.09
2023-01-09T12:29:27.816Z,98918.07
2023-01-09T12:31:35.389Z,98916.92
2023-01-09T12:33:42.414Z,98916.14
2023-01-09T12:35:48.322Z,98916.41
2023-01-09T12:37:54.221Z,98905.31
2023-01-09T12:40:00.452Z,98903.47
2023-01-09T12:42:06.447Z,98901.44
2023-01-09T12:44:13.116Z,98898.86
2023-01-09T12:46:34.377Z,98897.2
2023-01-09T12:48:40.386Z,98900.73
2023-01-09T12:50:45.834Z,98902.98
2023-01-09T12:52:51.240Z,98901.32
2023-01-09T12:54:56.925Z,98894.66
2023-01-09T12:57:03.894Z,98895.19
2023-01-09T12:59:09.907Z,98890.75
2023-01-09T13:01:16.309Z,98888.53
2023-01-09T13:03:22.912Z,98888.99
2023-01-09T13:05:28.882Z,98886.9
2023-01-09T13:07:34.820Z,98885.91
2023-01-09T13:09:41.011Z,98886.86
2023-01-09T13:11:46.746Z,98885.19
2023-01-09T13:13:53.022Z,98885.55
2023-01-09T13:15:59.969Z,98889.39
2023-01-09T13:18:06.549Z,98886.85
2023-01-09T13:20:15.161Z,98884.09
2023-01-09T13:22:22.098Z,98871.93
2023-01-09T13:24:28.071Z,98875.06
2023-01-09T13:26:35.359Z,98865.38
2023-01-09T13:28:41.376Z,98861.72
2023-01-09T13:30:47.189Z,98869.86
2023-01-09T13:32:52.913Z,98860.41
2023-01-09T13:34:58.559Z,98862.82
2023-01-09T13:37:04.476Z,98862.92
2023-01-09T13:39:11.422Z,98855.52
2023-01-09T13:41:17.588Z,98860.7
2023-01-09T13:43:23.783Z,98858.17
2023-01-09T13:45:31.026Z,98860.15
2023-01-09T13:47:37.553Z,98857.52
2023-01-09T13:49:43.999Z,98854.97
2023-01-09T13:51:49.972Z,98853.61
2023-01-09T13:53:57.187Z,98859.97
2023-01-09T13:56:03.527Z,98859.3
2023-01-09T13:58:09.605Z,98850.07
2023-01-09T14:00:15.451Z,98861.22
2023-01-09T14:02:21.723Z,98850.33
2023-01-09T14:04:28.527Z,98835.46
2023-01-09T14:06:34.715Z,98849.34
2023-01-09T14:08:41.141Z,98850.88
2023-01-09T14:10:50.200Z,98848.57
2023-01-09T14:13:02.113Z,98849.63
2023-01-09T14:15:08.049Z,98843.8
2023-01-09T14:17:14.172Z,98849.89
2023-01-09T14:19:19.739Z,98849.11
2023-01-09T14:21:26.139Z,98845.18
2023-01-09T14:23:54.621Z,98843.82
2023-01-09T14:26:10.191Z,98843.7
2023-01-09T14:28:16.345Z,98847.01
2023-01-09T14:30:22.436Z,98851.39
2023-01-09T14:32:28.131Z,98856.39
2023-01-09T14:34:34.328Z,98864.66
2023-01-09T14:36:40.508Z,98864.88
2023-01-09T14:38:47.931Z,98868.01
2023-01-09T14:40:55.016Z,98864.34
2023-01-09T14:43:03.375Z,98869.2
2023-01-09T14:45:10.494Z,98875.73
2023-01-09T14:47:16.556Z,98872.36
2023-01-09T14:49:23.662Z,98873.7
2023-01-09T14:51:29.452Z,98868.88
2023-01-09T14:53:35.360Z,98874.13
2023-01-09T14:55:41.586Z,98875.63
2023-01-09T14:57:47.343Z,98872.89
2023-01-09T14:59:52.512Z,98875.8
2023-01-09T15:01:57.942Z,98879.66
2023-01-09T15:04:03.963Z,98880.43
2023-01-09T15:06:09.997Z,98880.8
2023-01-09T15:08:16.522Z,98877.97
2023-01-09T15:10:23.061Z,98884.02
2023-01-09T15:12:28.427Z,98880.45
2023-01-09T15:14:36.235Z,98883.77
2023-01-09T15:16:42.596Z,98885.45
2023-01-09T15:18:48.563Z,98892.5
2023-01-09T15:20:53.988Z,98898.16
2023-01-09T15:23:02.502Z,98893.89
2023-01-09T15:25:08.307Z,98891.73
2023-01-09T15:27:14.102Z,98894.63
2023-01-09T15:29:19.825Z,98897.97
2023-01-09T15:31:25.686Z,98902.14
2023-01-09T15:33:31.820Z,98900.76
2023-01-09T15:35:37.376Z,98899.71
2023-01-09T15:37:43.658Z,98897.89
2023-01-09T15:39:49.829Z,98903.17
2023-01-09T15:41:55.665Z,98901.87
2023-01-09T15:44:01.441Z,98906.23
2023-01-09T15:46:07.316Z,98909.66
2023-01-09T15:48:13.715Z,98908.67
2023-01-09T15:50:19.552Z,98905.64
2023-01-09T15:52:24.847Z,98904.38
2023-01-09T15:54:30.757Z,98904.25
2023-01-09T15:56:37.606Z,98907.17
2023-01-09T15:58:43.575Z,98910.97
2023-01-09T16:00:50.712Z,98912.03
2023-01-09T16:02:56.615Z,98908.55
2023-01-09T16:05:01.974Z,98912.61
2023-01-09T16:07:08.872Z,98917.91
2023-01-09T16:09:14.852Z,98916.02
2023-01-09T16:11:20.279Z,98917.48
2023-01-09T16:13:26.236Z,98907.63
2023-01-09T16:15:32.177Z,98901.58
2023-01-09T16:17:37.847Z,98901.58
2023-01-09T16:19:43.898Z,98902.31
2023-01-09T16:21:50.319Z,98905.32
2023-01-09T16:23:56.527Z,98912.83
2023-01-09T16:26:02.474Z,98919.83
2023-01-09T16:28:10.049Z,98918.28
2023-01-09T16:30:15.509Z,98926.5
2023-01-09T16:32:21.771Z,98928.74
2023-01-09T16:34:27.883Z,98930.88
2023-01-09T16:36:33.761Z,98937.93
2023-01-09T16:38:39.389Z,98942.28
2023-01-09T16:40:45.389Z,98943.58
2023-01-09T16:42:51.788Z,98942
2023-01-09T16:44:57.914Z,98946.78
2023-01-09T16:47:05.255Z,98944.97
2023-01-09T16:49:13.063Z,98947.55
2023-01-09T16:51:18.973Z,98946.42
2023-01-09T16:53:25.005Z,98950.5
2023-01-09T16:55:32.595Z,98951.02
2023-01-09T16:57:38.966Z,98952.22
2023-01-09T16:59:45.254Z,98954.91
2023-01-09T17:01:51.886Z,98950.77
2023-01-09T17:03:57.915Z,98949.98
2023-01-09T17:06:03.315Z,98951.45
2023-01-09T17:08:09.081Z,98953.87
2023-01-09T17:10:14.917Z,98955.53
2023-01-09T17:12:22.040Z,98956.78
2023-01-09T17:14:28.159Z,98958.35
2023-01-09T17:16:34.300Z,98960.63
2023-01-09T17:18:41.958Z,98962.83
2023-01-09T17:20:48.626Z,98960.81
2023-01-09T17:22:54.970Z,98955.64
2023-01-09T17:25:01.787Z,98959.89
2023-01-09T17:27:09.674Z,98962.91
2023-01-09T17:29:16.569Z,98965.74
2023-01-09T17:31:22.403Z,98969.69
2023-01-09T17:33:28.736Z,98974.72
2023-01-09T17:35:35.070Z,98980.98
2023-01-09T17:37:40.766Z,98981.19
2023-01-09T17:39:46.765Z,98984.25
2023-01-09T17:41:52.806Z,98987.5
2023-01-09T17:44:02.185Z,98992.41
2023-01-09T17:46:08.790Z,98989.34
2023-01-09T17:48:15.633Z,98992.27
2023-01-09T17:50:22.734Z,99001.34
2023-01-09T17:52:31.161Z,99011.23
2023-01-09T17:54:40.265Z,99008.14
2023-01-09T17:56:47.421Z,99010.5
2023-01-09T17:58:55.591Z,99016.23
2023-01-09T18:01:02.741Z,99008.47
2023-01-09T18:03:09.610Z,99009.94
2023-01-09T18:05:16.377Z,98999.2
2023-01-09T18:07:23.037Z,99001.59
2023-01-09T18:09:30.218Z,99003.52
2023-01-09T18:11:39.155Z,99001.09
2023-01-09T18:13:45.149Z,98993.5
2023-01-09T18:15:51.687Z,98992.45
2023-01-09T18:17:58.424Z,98994.56
2023-01-09T18:20:05.884Z,98998.27
2023-01-09T18:22:17.587Z,99006.49
2023-01-09T18:24:24.993Z,99002.19
2023-01-09T18:26:31.997Z,99003.67
2023-01-09T18:28:39.340Z,99007.99
2023-01-09T18:30:47.572Z,99005.66
2023-01-09T18:32:54.154Z,99007.97
2023-01-09T18:35:05.247Z,99006.81
2023-01-09T18:37:12.090Z,99013.8
2023-01-09T18:39:18.871Z,99016.09
2023-01-09T18:41:25.085Z,99016.69
2023-01-09T18:43:38.562Z,99012.38
2023-01-09T18:45:45.015Z,99013.81
2023-01-09T18:47:52.299Z,99013.13
2023-01-09T18:49:58.633Z,99016.47
2023-01-09T18:52:09.879Z,99023.08
2023-01-09T18:54:21.973Z,99028.98
2023-01-09T18:56:30.762Z,99031.71
2023-01-09T18:58:40.709Z,99037.38
2023-01-09T19:00:47.575Z,99033.2
2023-01-09T19:02:55.717Z,99039.52
2023-01-09T19:05:02.462Z,99043.41
2023-01-09T19:07:20.375Z,99048.3
2023-01-09T19:09:28.833Z,99047.59
2023-01-09T19:11:35.996Z,99050.49
2023-01-09T19:13:43.237Z,99046.21
2023-01-09T19:15:51.235Z,99051.11
2023-01-09T19:17:59.421Z,99054.39
2023-01-09T19:20:06.201Z,99059.25
2023-01-09T19:22:13.831Z,99053.58
2023-01-09T19:24:23.235Z,99049.92
2023-01-09T19:26:29.559Z,99057.08
2023-01-09T19:28:37.448Z,99067.81
2023-01-09T19:30:46.699Z,99078.01
2023-01-09T19:32:55.800Z,99080.3
2023-01-09T19:35:03.653Z,99076.33
2023-01-09T19:37:11.641Z,99068.23
2023-01-09T19:39:21.157Z,99070.46
2023-01-09T19:41:28.258Z,99076.42
2023-01-09T19:43:34.701Z,99089.28
2023-01-09T19:45:45.433Z,99087.09
2023-01-09T19:47:54.373Z,99084.05
2023-01-09T19:50:00.724Z,99087.29
2023-01-09T19:52:11.645Z,99085
2023-01-09T19:54:22.716Z,99090.19
2023-01-09T19:56:31.200Z,99093.16
2023-01-09T19:58:37.214Z,99094.06
2023-01-09T20:00:44.047Z,99096
2023-01-09T20:02:52.514Z,99096.98
2023-01-09T20:05:00.385Z,99094.2
2023-01-09T20:07:09.776Z,99092.44
2023-01-09T20:09:17.955Z,99100.77
2023-01-09T20:11:26.190Z,99101.78
2023-01-09T20:13:34.941Z,99099.48
2023-01-09T20:15:41.964Z,99100.63
2023-01-09T20:17:52.390Z,99112.59
2023-01-09T20:20:00.860Z,99111.22
2023-01-09T20:22:08.284Z,99118.45
2023-01-09T20:24:17.871Z,99124.38
2023-01-09T20:26:26.962Z,99127.3
2023-01-09T20:28:35.751Z,99128.74
2023-01-09T20:30:43.577Z,99130.15
2023-01-09T20:32:51.314Z,99131.21
2023-01-09T20:35:00.709Z,99130.67
2023-01-09T20:37:08.398Z,99125.31
2023-01-09T20:39:16.456Z,99125.39
2023-01-09T20:41:22.834Z,99124.48
2023-01-09T20:43:30.373Z,99129.77
2023-01-09T20:45:38.105Z,99137.1
2023-01-09T20:47:47.318Z,99138.06
2023-01-09T20:49:54.233Z,99147.11
2023-01-09T20:52:02.236Z,99149.91
2023-01-09T20:54:08.611Z,99148.18
2023-01-09T20:56:15.444Z,99146.44
2023-01-09T20:58:22.824Z,99145.86
2023-01-09T21:00:31.095Z,99147.02
2023-01-09T21:02:37.225Z,99146.4
2023-01-09T21:04:43.769Z,99153.39
2023-01-09T21:06:52.012Z,99162.2
2023-01-09T21:08:59.085Z,99167.35
2023-01-09T21:11:04.890Z,99171.39
2023-01-09T21:13:10.861Z,99177.97
2023-01-09T21:15:17.259Z,99180.9
2023-01-09T21:17:23.969Z,99183.61
2023-01-09T21:19:30.192Z,99183.3
2023-01-09T21:21:37.769Z,99187.02
2023-01-09T21:23:44.108Z,99183.9
2023-01-09T21:25:50.232Z,99187.35
2023-01-09T21:27:56.359Z,99192.59
2023-01-09T21:30:03.045Z,99193.2
2023-01-09T21:32:09.215Z,99201.08
2023-01-09T21:34:15.212Z,99204.16
2023-01-09T21:36:21.009Z,99212.55
2023-01-09T21:38:27.269Z,99215
2023-01-09T21:40:33.847Z,99217.33
2023-01-09T21:42:39.662Z,99217.88
2023-01-09T21:44:45.739Z,99223.16
2023-01-09T21:46:52.029Z,99225.39
2023-01-09T21:48:58.596Z,99230.51
2023-01-09T21:51:04.716Z,99235.44
2023-01-09T21:53:11.021Z,99237.81
2023-01-09T21:55:17.488Z,99239.46
2023-01-09T21:57:24.236Z,99241.94
2023-01-09T21:59:30.985Z,99247.88
2023-01-09T22:01:37.360Z,99254.7
2023-01-09T22:03:43.510Z,99264.73
2023-01-09T22:05:50.019Z,99260.92
2023-01-09T22:07:56.379Z,99269.81
2023-01-09T22:10:02.653Z,99269.48
2023-01-09T22:12:08.887Z,99269.97
2023-01-09T22:14:14.689Z,99267.52
2023-01-09T22:16:20.058Z,99262.66
2023-01-09T22:18:26.132Z,99259.13
2023-01-09T22:20:32.095Z,99260.7
2023-01-09T22:22:37.858Z,99264.66
2023-01-09T22:24:43.375Z,99261.84
2023-01-09T22:26:49.400Z,99261.77
2023-01-09T22:28:55.364Z,99255.84
2023-01-09T22:31:00.499Z,99253.96
2023-01-09T22:33:06.225Z,99257.5
2023-01-09T22:35:11.740Z,99259.23
2023-01-09T22:37:17.297Z,99258.59
2023-01-09T22:39:22.612Z,99262.2
2023-01-09T22:41:28.487Z,99264.76
2023-01-09T22:43:34.168Z,99268.03
2023-01-09T22:45:39.664Z,99267.72
2023-01-09T22:47:45.237Z,99267.8
2023-01-09T22:49:54.956Z,99263.92
2023-01-09T22:52:00.051Z,99267.88
2023-01-09T22:54:05.321Z,99275.58
2023-01-09T22:56:10.946Z,99276.25
2023-01-09T22:58:16.496Z,99279.38
2023-01-09T23:00:22.175Z,99283.98
2023-01-09T23:02:27.838Z,99288.45
2023-01-09T23:04:33.667Z,99281.38
2023-01-09T23:06:38.931Z,99282.2
2023-01-09T23:08:44.391Z,99281.38
2023-01-09T23:10:49.740Z,99284.26
2023-01-09T23:12:55.001Z,99286.66
2023-01-09T23:15:00.042Z,99286.22
2023-01-09T23:17:05.305Z,99283.75
2023-01-09T23:19:10.587Z,99286.06
2023-01-09T23:21:15.817Z,99289.84
2023-01-09T23:23:20.951Z,99292.7
2023-01-09T23:25:26.346Z,99294.27
2023-01-09T23:27:31.770Z,99300.19
2023-01-09T23:29:40.857Z,99302.16
2023-01-09T23:31:46.733Z,99303.3
2023-01-09T23:33:52.904Z,99304.06
2023-01-09T23:35:58.118Z,99304.94
2023-01-09T23:38:03.352Z,99304.7
2023-01-09T23:40:08.653Z,99310.21
2023-01-09T23:42:13.579Z,99314.98
2023-01-09T23:44:18.811Z,99321.56
2023-01-09T23:46:23.863Z,99329.13
2023-01-09T23:48:31.418Z,99332.06
2023-01-09T23:50:36.611Z,99336.86
2023-01-09T23:52:41.999Z,99341.59
2023-01-09T23:54:47.318Z,99344.33
2023-01-09T23:56:52.554Z,99345.56
2023-01-09T23:58:57.952Z,99347.78
